This is the latest recevied weather packets stored in our database for station/object OM8AKX-4. If no packets are shown the sender has not sent any weather packets the latest 1 day(s).
| Time | Temp. | Humidity | Pressure | Rain* | Wind** | Luminosity | Snow |
|---|---|---|---|---|---|---|---|
| 1778107334 | 10.56° C | 100% | 872.6 hPa | - | - | - | - |
| 1778106434 | 11.11° C | 100% | 872.7 hPa | - | - | - | - |
| 1778097433 | 11.11° C | 86% | 872.5 hPa | - | - | - | - |
| 1778096533 | 11.11° C | 84% | 872.7 hPa | - | - | - | - |
| 1778095632 | 11.11° C | 81% | 872.6 hPa | - | - | - | - |
| 1778094734 | 11.11° C | 78% | 872.7 hPa | - | - | - | - |
| 1778092033 | 11.11° C | 72% | 872.4 hPa | - | - | - | - |
| 1778091133 | 11.11° C | 73% | 872.2 hPa | - | - | - | - |
| 1778090232 | 11.67° C | 72% | 872.3 hPa | - | - | - | - |
| 1778089332 | 11.67° C | 71% | 872.4 hPa | - | - | - | - |
| 1778080331 | 13.33° C | 66% | 872.7 hPa | - | - | - | - |
| 1778079431 | 13.33° C | 66% | 872.8 hPa | - | - | - | - |
| 1778078531 | 13.89° C | 63% | 872.9 hPa | - | - | - | - |
| 1778077631 | 13.89° C | 63% | 872.8 hPa | - | - | - | - |
| 1778076731 | 14.44° C | 62% | 872.9 hPa | - | - | - | - |
| 1778065932 | 13.89° C | 68% | 872.8 hPa | - | - | - | - |
| 1778065032 | 14.44° C | 69% | 873 hPa | - | - | - | - |
| 1778064132 | 13.89° C | 71% | 872.8 hPa | - | - | - | - |
| 1778063232 | 13.89° C | 75% | 872.7 hPa | - | - | - | - |
| 1778062332 | 13.33° C | 76% | 872.9 hPa | - | - | - | - |
| 1778061432 | 13.33° C | 79% | 872.7 hPa | - | - | - | - |
| 1778060532 | 12.78° C | 80% | 872.6 hPa | - | - | - | - |
| 1778056931 | 12.22° C | 83% | 872.3 hPa | - | - | - | - |
| 1778055131 | 12.22° C | 75% | 872.1 hPa | - | - | - | - |
| 1778054231 | 12.22° C | 72% | 872 hPa | - | - | - | - |
* Rain since midnight (hover to see other rain measurements)
** Current wind speed in m/s (hover to see current wind gust speed)